sensor_id;sensor_type;location;lat;lon;timestamp;pressure;altitude;pressure_sealevel;temperature;humidity
28921;BME280;16035;53.594;9.952;2022-08-11T00:00:43;102461.00;;;19.58;53.98
28921;BME280;16035;53.594;9.952;2022-08-11T00:02:52;102462.66;;;19.54;54.21
28921;BME280;16035;53.594;9.952;2022-08-11T00:04:55;102463.50;;;19.49;53.85
28921;BME280;16035;53.594;9.952;2022-08-11T00:07:01;102460.47;;;19.45;54.34
28921;BME280;16035;53.594;9.952;2022-08-11T00:09:16;102455.25;;;19.44;54.63
28921;BME280;16035;53.594;9.952;2022-08-11T00:11:18;102463.81;;;19.42;54.38
28921;BME280;16035;53.594;9.952;2022-08-11T00:13:21;102464.34;;;19.39;54.64
28921;BME280;16035;53.594;9.952;2022-08-11T00:15:23;102463.53;;;19.39;54.51
28921;BME280;16035;53.594;9.952;2022-08-11T00:17:29;102462.97;;;19.37;54.92
28921;BME280;16035;53.594;9.952;2022-08-11T00:19:33;102467.13;;;19.34;54.95
28921;BME280;16035;53.594;9.952;2022-08-11T00:21:40;102458.88;;;19.29;55.13
28921;BME280;16035;53.594;9.952;2022-08-11T00:23:51;102463.81;;;19.27;55.12
28921;BME280;16035;53.594;9.952;2022-08-11T00:25:53;102457.47;;;19.27;55.02
28921;BME280;16035;53.594;9.952;2022-08-11T00:27:54;102464.38;;;19.24;55.23
28921;BME280;16035;53.594;9.952;2022-08-11T00:29:56;102467.94;;;19.19;55.31
28921;BME280;16035;53.594;9.952;2022-08-11T00:31:59;102462.72;;;19.18;55.34
28921;BME280;16035;53.594;9.952;2022-08-11T00:34:02;102462.44;;;19.14;55.25
28921;BME280;16035;53.594;9.952;2022-08-11T00:36:04;102467.44;;;19.12;55.28
28921;BME280;16035;53.594;9.952;2022-08-11T00:38:06;102462.75;;;19.08;55.40
28921;BME280;16035;53.594;9.952;2022-08-11T00:40:14;102469.63;;;19.05;55.95
28921;BME280;16035;53.594;9.952;2022-08-11T00:45:09;102457.50;;;18.96;56.32
28921;BME280;16035;53.594;9.952;2022-08-11T00:49:45;102470.47;;;18.90;56.31
28921;BME280;16035;53.594;9.952;2022-08-11T00:52:07;102468.25;;;18.87;56.71
28921;BME280;16035;53.594;9.952;2022-08-11T00:54:35;102474.88;;;18.86;56.84
28921;BME280;16035;53.594;9.952;2022-08-11T00:59:14;102462.47;;;18.79;57.06
28921;BME280;16035;53.594;9.952;2022-08-11T01:01:19;102478.97;;;18.79;56.69
28921;BME280;16035;53.594;9.952;2022-08-11T01:03:37;102470.47;;;18.75;57.07
28921;BME280;16035;53.594;9.952;2022-08-11T01:08:34;102469.38;;;18.71;57.08
28921;BME280;16035;53.594;9.952;2022-08-11T01:10:57;102467.13;;;18.68;57.02
28921;BME280;16035;53.594;9.952;2022-08-11T01:23:07;102466.53;;;18.56;57.73
28921;BME280;16035;53.594;9.952;2022-08-11T01:37:47;102465.94;;;18.38;58.01
28921;BME280;16035;53.594;9.952;2022-08-11T01:47:31;102465.66;;;18.25;58.21
28921;BME280;16035;53.594;9.952;2022-08-11T01:52:47;102470.31;;;18.24;58.85
28921;BME280;16035;53.594;9.952;2022-08-11T01:55:06;102470.03;;;18.21;58.82
28921;BME280;16035;53.594;9.952;2022-08-11T01:57:32;102467.56;;;18.19;59.41
28921;BME280;16035;53.594;9.952;2022-08-11T01:59:40;102468.09;;;18.16;58.90
28921;BME280;16035;53.594;9.952;2022-08-11T02:02:22;102471.13;;;18.14;59.28
28921;BME280;16035;53.594;9.952;2022-08-11T02:05:06;102461.75;;;18.10;59.07
28921;BME280;16035;53.594;9.952;2022-08-11T02:07:35;102466.44;;;18.10;59.75
28921;BME280;16035;53.594;9.952;2022-08-11T02:09:42;102460.94;;;18.10;59.17
28921;BME280;16035;53.594;9.952;2022-08-11T02:11:48;102457.59;;;18.08;59.21
28921;BME280;16035;53.594;9.952;2022-08-11T02:18:33;102452.91;;;18.03;59.55
28921;BME280;16035;53.594;9.952;2022-08-11T02:20:56;102457.03;;;18.01;59.46
28921;BME280;16035;53.594;9.952;2022-08-11T02:23:31;102453.19;;;17.97;60.00
28921;BME280;16035;53.594;9.952;2022-08-11T02:28:00;102450.44;;;17.97;60.48
28921;BME280;16035;53.594;9.952;2022-08-11T02:30:06;102449.03;;;17.94;59.74
28921;BME280;16035;53.594;9.952;2022-08-11T02:32:18;102444.91;;;17.91;60.04
28921;BME280;16035;53.594;9.952;2022-08-11T02:34:46;102447.66;;;17.91;59.57
28921;BME280;16035;53.594;9.952;2022-08-11T02:37:11;102439.66;;;17.90;60.45
28921;BME280;16035;53.594;9.952;2022-08-11T02:39:17;102444.63;;;17.88;59.82
28921;BME280;16035;53.594;9.952;2022-08-11T02:41:25;102441.31;;;17.86;60.20
28921;BME280;16035;53.594;9.952;2022-08-11T02:44:21;102444.31;;;17.84;60.55
28921;BME280;16035;53.594;9.952;2022-08-11T02:46:28;102449.28;;;17.82;60.34
28921;BME280;16035;53.594;9.952;2022-08-11T02:48:52;102445.41;;;17.83;60.87
28921;BME280;16035;53.594;9.952;2022-08-11T02:53:26;102447.88;;;17.80;60.46
28921;BME280;16035;53.594;9.952;2022-08-11T02:55:50;102445.41;;;17.78;61.05
28921;BME280;16035;53.594;9.952;2022-08-11T02:58:09;102448.41;;;17.77;60.71
28921;BME280;16035;53.594;9.952;2022-08-11T03:00:13;102443.47;;;17.74;60.50
28921;BME280;16035;53.594;9.952;2022-08-11T03:07:24;102443.66;;;17.67;61.15
28921;BME280;16035;53.594;9.952;2022-08-11T03:11:55;102442.00;;;17.66;61.08
28921;BME280;16035;53.594;9.952;2022-08-11T03:14:24;102444.22;;;17.64;61.13
28921;BME280;16035;53.594;9.952;2022-08-11T03:16:59;102447.22;;;17.62;61.15
28921;BME280;16035;53.594;9.952;2022-08-11T03:19:25;102445.00;;;17.59;61.87
28921;BME280;16035;53.594;9.952;2022-08-11T03:21:44;102451.34;;;17.60;61.47
28921;BME280;16035;53.594;9.952;2022-08-11T03:23:52;102444.16;;;17.59;60.94
28921;BME280;16035;53.594;9.952;2022-08-11T03:29:09;102450.44;;;17.54;61.76
28921;BME280;16035;53.594;9.952;2022-08-11T03:33:36;102452.34;;;17.49;61.63
28921;BME280;16035;53.594;9.952;2022-08-11T03:38:11;102449.84;;;17.42;61.52
28921;BME280;16035;53.594;9.952;2022-08-11T03:40:35;102450.94;;;17.41;61.95
28921;BME280;16035;53.594;9.952;2022-08-11T03:43:06;102457.22;;;17.36;61.30
28921;BME280;16035;53.594;9.952;2022-08-11T03:45:23;102446.78;;;17.33;61.84
28921;BME280;16035;53.594;9.952;2022-08-11T03:47:36;102444.56;;;17.30;62.16
28921;BME280;16035;53.594;9.952;2022-08-11T04:07:13;102453.28;;;17.22;62.55
28921;BME280;16035;53.594;9.952;2022-08-11T04:20:03;102452.69;;;17.15;62.67
28921;BME280;16035;53.594;9.952;2022-08-11T04:22:34;102453.25;;;17.17;62.47
28921;BME280;16035;53.594;9.952;2022-08-11T04:31:44;102458.22;;;17.20;62.87
28921;BME280;16035;53.594;9.952;2022-08-11T04:39:13;102444.53;;;17.25;63.50
28921;BME280;16035;53.594;9.952;2022-08-11T04:41:19;102448.41;;;17.29;63.68
28921;BME280;16035;53.594;9.952;2022-08-11T04:46:08;102449.22;;;17.30;63.42
28921;BME280;16035;53.594;9.952;2022-08-11T04:51:24;102439.09;;;17.35;63.67
28921;BME280;16035;53.594;9.952;2022-08-11T04:53:59;102444.06;;;17.38;63.61
28921;BME280;16035;53.594;9.952;2022-08-11T04:56:43;102443.53;;;17.41;63.46
28921;BME280;16035;53.594;9.952;2022-08-11T05:14:04;102449.81;;;17.84;63.68
28921;BME280;16035;53.594;9.952;2022-08-11T05:16:52;102441.88;;;17.88;63.66
28921;BME280;16035;53.594;9.952;2022-08-11T05:19:17;102449.84;;;17.89;63.37
28921;BME280;16035;53.594;9.952;2022-08-11T05:21:39;102440.50;;;17.90;63.47
28921;BME280;16035;53.594;9.952;2022-08-11T05:24:09;102446.84;;;17.96;63.54
28921;BME280;16035;53.594;9.952;2022-08-11T05:26:35;102448.50;;;18.02;64.04
28921;BME280;16035;53.594;9.952;2022-08-11T05:29:00;102445.50;;;18.04;63.58
28921;BME280;16035;53.594;9.952;2022-08-11T05:31:32;102445.25;;;18.10;63.74
28921;BME280;16035;53.594;9.952;2022-08-11T05:33:59;102443.31;;;18.16;63.70
28921;BME280;16035;53.594;9.952;2022-08-11T05:36:30;102447.50;;;18.29;63.93
28921;BME280;16035;53.594;9.952;2022-08-11T05:38:35;102442.00;;;18.39;63.55
28921;BME280;16035;53.594;9.952;2022-08-11T05:40:55;102444.50;;;18.46;63.53
28921;BME280;16035;53.594;9.952;2022-08-11T05:43:15;102439.28;;;18.59;63.44
28921;BME280;16035;53.594;9.952;2022-08-11T05:45:35;102448.16;;;18.77;63.24
28921;BME280;16035;53.594;9.952;2022-08-11T05:47:54;102437.13;;;18.82;63.08
28921;BME280;16035;53.594;9.952;2022-08-11T05:50:14;102447.59;;;18.90;63.10
28921;BME280;16035;53.594;9.952;2022-08-11T05:52:35;102441.25;;;18.94;62.91
28921;BME280;16035;53.594;9.952;2022-08-11T05:55:00;102450.63;;;18.99;63.10
28921;BME280;16035;53.594;9.952;2022-08-11T05:57:22;102450.91;;;19.07;62.77
28921;BME280;16035;53.594;9.952;2022-08-11T05:59:24;102454.47;;;19.18;62.58
28921;BME280;16035;53.594;9.952;2022-08-11T06:01:30;102450.03;;;19.27;62.59
28921;BME280;16035;53.594;9.952;2022-08-11T06:03:32;102448.94;;;19.33;62.22
28921;BME280;16035;53.594;9.952;2022-08-11T06:05:53;102452.78;;;19.42;62.20
28921;BME280;16035;53.594;9.952;2022-08-11T06:07:54;102461.84;;;19.48;61.84
28921;BME280;16035;53.594;9.952;2022-08-11T06:10:00;102454.69;;;19.52;62.01
28921;BME280;16035;53.594;9.952;2022-08-11T06:12:07;102449.97;;;19.58;61.90
28921;BME280;16035;53.594;9.952;2022-08-11T06:14:08;102446.97;;;19.64;61.60
28921;BME280;16035;53.594;9.952;2022-08-11T06:16:13;102449.41;;;19.71;61.46
28921;BME280;16035;53.594;9.952;2022-08-11T06:18:20;102447.44;;;19.77;61.36
28921;BME280;16035;53.594;9.952;2022-08-11T06:20:21;102450.19;;;19.82;61.38
28921;BME280;16035;53.594;9.952;2022-08-11T06:22:24;102451.84;;;19.88;61.22
28921;BME280;16035;53.594;9.952;2022-08-11T06:24:25;102446.28;;;19.93;61.17
28921;BME280;16035;53.594;9.952;2022-08-11T06:26:28;102448.50;;;19.96;60.85
28921;BME280;16035;53.594;9.952;2022-08-11T06:28:36;102447.06;;;20.04;60.86
28921;BME280;16035;53.594;9.952;2022-08-11T06:32:43;102449.44;;;20.20;60.64
28921;BME280;16035;53.594;9.952;2022-08-11T06:37:43;102449.38;;;20.31;60.54
28921;BME280;16035;53.594;9.952;2022-08-11T06:40:10;102454.31;;;20.39;60.24
28921;BME280;16035;53.594;9.952;2022-08-11T06:45:33;102446.53;;;20.51;59.55
28921;BME280;16035;53.594;9.952;2022-08-11T06:47:42;102450.69;;;20.54;59.26
28921;BME280;16035;53.594;9.952;2022-08-11T06:49:46;102446.47;;;20.61;58.74
28921;BME280;16035;53.594;9.952;2022-08-11T06:52:31;102447.78;;;20.69;58.61
28921;BME280;16035;53.594;9.952;2022-08-11T06:54:35;102448.81;;;20.78;58.31
28921;BME280;16035;53.594;9.952;2022-08-11T06:56:38;102451.84;;;20.82;58.27
28921;BME280;16035;53.594;9.952;2022-08-11T06:58:58;102450.63;;;20.93;58.10
28921;BME280;16035;53.594;9.952;2022-08-11T07:01:39;102447.50;;;21.05;58.22
28921;BME280;16035;53.594;9.952;2022-08-11T07:03:51;102440.22;;;21.14;57.41
28921;BME280;16035;53.594;9.952;2022-08-11T07:06:05;102442.63;;;21.20;57.67
28921;BME280;16035;53.594;9.952;2022-08-11T07:11:24;102446.09;;;21.36;57.19
28921;BME280;16035;53.594;9.952;2022-08-11T07:13:48;102447.91;;;21.46;56.74
28921;BME280;16035;53.594;9.952;2022-08-11T07:16:09;102445.03;;;21.56;56.44
28921;BME280;16035;53.594;9.952;2022-08-11T07:18:21;102443.56;;;21.64;56.61
28921;BME280;16035;53.594;9.952;2022-08-11T07:20:41;102441.53;;;21.75;56.31
28921;BME280;16035;53.594;9.952;2022-08-11T07:23:02;102441.16;;;21.81;56.40
28921;BME280;16035;53.594;9.952;2022-08-11T07:25:22;102441.38;;;21.85;56.04
28921;BME280;16035;53.594;9.952;2022-08-11T07:27:44;102437.72;;;21.89;55.92
28921;BME280;16035;53.594;9.952;2022-08-11T07:30:07;102439.59;;;21.94;55.91
28921;BME280;16035;53.594;9.952;2022-08-11T07:32:14;102444.56;;;21.97;55.65
28921;BME280;16035;53.594;9.952;2022-08-11T07:34:23;102440.28;;;22.05;55.37
28921;BME280;16035;53.594;9.952;2022-08-11T07:36:27;102442.97;;;22.15;55.31
28921;BME280;16035;53.594;9.952;2022-08-11T07:38:37;102440.84;;;22.26;55.08
28921;BME280;16035;53.594;9.952;2022-08-11T07:40:45;102444.97;;;22.47;54.88
28921;BME280;16035;53.594;9.952;2022-08-11T07:42:46;102438.38;;;22.62;54.66
28921;BME280;16035;53.594;9.952;2022-08-11T07:44:47;102446.13;;;22.98;54.30
28921;BME280;16035;53.594;9.952;2022-08-11T07:47:06;102436.44;;;23.28;54.37
28921;BME280;16035;53.594;9.952;2022-08-11T07:49:30;102433.66;;;23.55;53.34
28921;BME280;16035;53.594;9.952;2022-08-11T07:51:51;102438.16;;;24.06;53.23
28921;BME280;16035;53.594;9.952;2022-08-11T07:54:11;102437.97;;;24.53;52.00
28921;BME280;16035;53.594;9.952;2022-08-11T07:56:12;102438.66;;;24.58;52.02
28921;BME280;16035;53.594;9.952;2022-08-11T07:58:15;102438.59;;;24.72;51.57
28921;BME280;16035;53.594;9.952;2022-08-11T08:00:46;102439.56;;;25.21;51.63
28921;BME280;16035;53.594;9.952;2022-08-11T08:03:06;102439.34;;;25.88;51.66
28921;BME280;16035;53.594;9.952;2022-08-11T08:05:26;102441.34;;;26.92;49.73
28921;BME280;16035;53.594;9.952;2022-08-11T08:07:46;102427.47;;;27.68;48.76
28921;BME280;16035;53.594;9.952;2022-08-11T08:10:07;102432.25;;;28.39;48.09
28921;BME280;16035;53.594;9.952;2022-08-11T08:12:27;102436.72;;;28.74;45.85
28921;BME280;16035;53.594;9.952;2022-08-11T08:14:47;102438.06;;;29.34;45.72
28921;BME280;16035;53.594;9.952;2022-08-11T08:17:07;102441.31;;;29.97;45.00
28921;BME280;16035;53.594;9.952;2022-08-11T08:19:27;102431.19;;;30.45;44.26
28921;BME280;16035;53.594;9.952;2022-08-11T08:21:28;102438.59;;;30.53;44.00
28921;BME280;16035;53.594;9.952;2022-08-11T08:23:28;102429.63;;;31.04;43.25
28921;BME280;16035;53.594;9.952;2022-08-11T08:25:35;102438.41;;;31.18;42.28
28921;BME280;16035;53.594;9.952;2022-08-11T08:27:38;102422.63;;;31.13;40.91
28921;BME280;16035;53.594;9.952;2022-08-11T08:29:39;102429.00;;;31.42;41.35
28921;BME280;16035;53.594;9.952;2022-08-11T08:31:59;102436.41;;;31.66;41.11
28921;BME280;16035;53.594;9.952;2022-08-11T08:34:01;102431.19;;;32.00;40.83
28921;BME280;16035;53.594;9.952;2022-08-11T08:36:03;102436.66;;;31.92;39.77
28921;BME280;16035;53.594;9.952;2022-08-11T08:38:14;102431.81;;;32.28;39.65
28921;BME280;16035;53.594;9.952;2022-08-11T08:40:14;102434.09;;;32.22;39.29
28921;BME280;16035;53.594;9.952;2022-08-11T08:42:51;102430.97;;;32.28;37.62
28921;BME280;16035;53.594;9.952;2022-08-11T08:45:11;102430.66;;;31.94;36.57
28921;BME280;16035;53.594;9.952;2022-08-11T08:47:15;102430.41;;;31.67;37.38
28921;BME280;16035;53.594;9.952;2022-08-11T08:49:18;102430.84;;;31.69;38.08
28921;BME280;16035;53.594;9.952;2022-08-11T08:51:22;102435.47;;;31.78;37.97
28921;BME280;16035;53.594;9.952;2022-08-11T08:53:38;102429.72;;;32.25;37.81
28921;BME280;16035;53.594;9.952;2022-08-11T08:55:40;102424.09;;;32.25;36.06
28921;BME280;16035;53.594;9.952;2022-08-11T08:57:43;102426.56;;;32.65;36.52
28921;BME280;16035;53.594;9.952;2022-08-11T08:59:46;102427.41;;;33.12;36.10
28921;BME280;16035;53.594;9.952;2022-08-11T09:02:00;102421.34;;;33.33;34.76
28921;BME280;16035;53.594;9.952;2022-08-11T09:04:06;102421.22;;;33.49;34.67
28921;BME280;16035;53.594;9.952;2022-08-11T09:06:08;102417.69;;;33.55;33.62
28921;BME280;16035;53.594;9.952;2022-08-11T09:08:10;102409.75;;;33.38;32.31
28921;BME280;16035;53.594;9.952;2022-08-11T09:10:13;102409.94;;;33.49;33.38
28921;BME280;16035;53.594;9.952;2022-08-11T09:12:20;102419.78;;;33.58;32.73
28921;BME280;16035;53.594;9.952;2022-08-11T09:14:26;102408.75;;;33.76;32.31
28921;BME280;16035;53.594;9.952;2022-08-11T09:16:51;102402.78;;;33.81;31.03
28921;BME280;16035;53.594;9.952;2022-08-11T09:18:52;102406.84;;;33.84;30.96
28921;BME280;16035;53.594;9.952;2022-08-11T09:20:52;102402.41;;;33.83;31.18
28921;BME280;16035;53.594;9.952;2022-08-11T09:22:58;102401.75;;;34.23;30.28
28921;BME280;16035;53.594;9.952;2022-08-11T09:25:20;102398.56;;;34.58;30.70
28921;BME280;16035;53.594;9.952;2022-08-11T09:27:40;102395.38;;;34.63;30.16
28921;BME280;16035;53.594;9.952;2022-08-11T09:29:40;102392.72;;;34.44;29.17
28921;BME280;16035;53.594;9.952;2022-08-11T09:31:43;102398.13;;;34.23;28.22
28921;BME280;16035;53.594;9.952;2022-08-11T09:33:45;102390.25;;;34.39;29.12
28921;BME280;16035;53.594;9.952;2022-08-11T09:35:47;102388.38;;;34.91;29.42
28921;BME280;16035;53.594;9.952;2022-08-11T09:37:48;102384.25;;;35.26;29.37
28921;BME280;16035;53.594;9.952;2022-08-11T09:40:08;102387.03;;;35.18;28.27
28921;BME280;16035;53.594;9.952;2022-08-11T09:42:28;102382.72;;;34.87;26.88
28921;BME280;16035;53.594;9.952;2022-08-11T09:44:48;102392.31;;;34.79;27.31
28921;BME280;16035;53.594;9.952;2022-08-11T09:46:49;102386.72;;;35.31;28.24
28921;BME280;16035;53.594;9.952;2022-08-11T09:48:52;102383.41;;;35.73;27.97
28921;BME280;16035;53.594;9.952;2022-08-11T09:50:56;102380.22;;;35.89;26.90
28921;BME280;16035;53.594;9.952;2022-08-11T09:52:58;102371.34;;;35.94;27.49
28921;BME280;16035;53.594;9.952;2022-08-11T09:54:59;102369.88;;;36.25;27.28
28921;BME280;16035;53.594;9.952;2022-08-11T09:57:01;102367.59;;;36.63;26.53
28921;BME280;16035;53.594;9.952;2022-08-11T09:59:21;102361.09;;;36.55;26.09
28921;BME280;16035;53.594;9.952;2022-08-11T10:01:27;102365.16;;;36.54;26.18
28921;BME280;16035;53.594;9.952;2022-08-11T10:03:30;102359.50;;;36.72;26.21
28921;BME280;16035;53.594;9.952;2022-08-11T10:05:32;102356.63;;;36.51;24.70
28921;BME280;16035;53.594;9.952;2022-08-11T10:07:52;102360.63;;;36.42;24.58
28921;BME280;16035;53.594;9.952;2022-08-11T10:10:00;102358.50;;;36.07;23.77
28921;BME280;16035;53.594;9.952;2022-08-11T10:12:01;102356.13;;;36.16;24.49
28921;BME280;16035;53.594;9.952;2022-08-11T10:14:06;102354.56;;;36.40;24.33
28921;BME280;16035;53.594;9.952;2022-08-11T10:16:28;102350.56;;;36.52;23.93
28921;BME280;16035;53.594;9.952;2022-08-11T10:18:33;102338.84;;;36.47;23.77
28921;BME280;16035;53.594;9.952;2022-08-11T10:20:56;102339.28;;;36.81;24.00
28921;BME280;16035;53.594;9.952;2022-08-11T10:22:58;102340.91;;;36.89;23.82
28921;BME280;16035;53.594;9.952;2022-08-11T10:25:18;102342.50;;;37.18;23.76
28921;BME280;16035;53.594;9.952;2022-08-11T10:27:38;102333.94;;;37.61;23.75
28921;BME280;16035;53.594;9.952;2022-08-11T10:29:41;102337.59;;;37.58;22.91
28921;BME280;16035;53.594;9.952;2022-08-11T10:32:02;102329.44;;;37.67;23.16
28921;BME280;16035;53.594;9.952;2022-08-11T10:34:22;102327.38;;;37.82;23.33
28921;BME280;16035;53.594;9.952;2022-08-11T10:36:25;102328.22;;;37.86;23.15
28921;BME280;16035;53.594;9.952;2022-08-11T10:38:26;102338.72;;;37.86;22.15
28921;BME280;16035;53.594;9.952;2022-08-11T10:40:29;102328.31;;;37.40;21.37
28921;BME280;16035;53.594;9.952;2022-08-11T10:42:32;102323.91;;;36.82;21.56
28921;BME280;16035;53.594;9.952;2022-08-11T10:44:54;102331.50;;;36.31;21.93
28921;BME280;16035;53.594;9.952;2022-08-11T10:46:56;102319.38;;;36.27;23.15
28921;BME280;16035;53.594;9.952;2022-08-11T10:49:16;102321.75;;;36.11;23.50
28921;BME280;16035;53.594;9.952;2022-08-11T10:51:18;102324.44;;;35.82;23.75
28921;BME280;16035;53.594;9.952;2022-08-11T10:53:19;102323.81;;;35.44;23.43
28921;BME280;16035;53.594;9.952;2022-08-11T10:55:41;102329.59;;;35.04;23.27
28921;BME280;16035;53.594;9.952;2022-08-11T10:58:01;102332.91;;;34.31;23.76
28921;BME280;16035;53.594;9.952;2022-08-11T11:00:20;102327.97;;;33.91;24.13
28921;BME280;16035;53.594;9.952;2022-08-11T11:02:20;102326.41;;;33.63;24.65
28921;BME280;16035;53.594;9.952;2022-08-11T11:04:32;102322.78;;;33.36;24.68
28921;BME280;16035;53.594;9.952;2022-08-11T11:07:06;102317.81;;;33.00;25.04
28921;BME280;16035;53.594;9.952;2022-08-11T11:11:44;102310.94;;;32.55;25.11
28921;BME280;16035;53.594;9.952;2022-08-11T11:14:05;102309.78;;;32.36;26.03
28921;BME280;16035;53.594;9.952;2022-08-11T11:16:24;102307.53;;;32.42;26.35
28921;BME280;16035;53.594;9.952;2022-08-11T11:18:45;102311.78;;;32.36;25.95
28921;BME280;16035;53.594;9.952;2022-08-11T11:20:59;102313.81;;;31.96;25.56
28921;BME280;16035;53.594;9.952;2022-08-11T11:23:05;102309.66;;;31.71;26.17
28921;BME280;16035;53.594;9.952;2022-08-11T11:27:31;102304.78;;;31.33;25.93
28921;BME280;16035;53.594;9.952;2022-08-11T11:29:56;102304.03;;;31.20;25.73
28921;BME280;16035;53.594;9.952;2022-08-11T11:35:22;102309.06;;;30.95;26.82
28921;BME280;16035;53.594;9.952;2022-08-11T11:37:02;102310.13;;;31.06;27.02
28921;BME280;16035;53.594;9.952;2022-08-11T11:39:03;102308.41;;;31.02;26.90
28921;BME280;16035;53.594;9.952;2022-08-11T11:41:04;102309.50;;;31.13;27.74
28921;BME280;16035;53.594;9.952;2022-08-11T11:43:23;102308.94;;;31.07;27.28
28921;BME280;16035;53.594;9.952;2022-08-11T11:45:24;102306.53;;;30.90;26.95
28921;BME280;16035;53.594;9.952;2022-08-11T11:47:25;102312.50;;;30.88;27.83
28921;BME280;16035;53.594;9.952;2022-08-11T11:49:27;102305.91;;;30.81;27.49
28921;BME280;16035;53.594;9.952;2022-08-11T11:51:28;102302.34;;;30.68;27.34
28921;BME280;16035;53.594;9.952;2022-08-11T11:53:30;102308.75;;;30.53;27.83
28921;BME280;16035;53.594;9.952;2022-08-11T11:55:30;102303.28;;;30.28;26.91
28921;BME280;16035;53.594;9.952;2022-08-11T11:57:31;102300.41;;;30.12;27.59
28921;BME280;16035;53.594;9.952;2022-08-11T11:59:51;102309.44;;;30.06;28.09
28921;BME280;16035;53.594;9.952;2022-08-11T12:02:13;102302.00;;;29.98;27.74
28921;BME280;16035;53.594;9.952;2022-08-11T12:04:15;102301.06;;;29.93;27.75
28921;BME280;16035;53.594;9.952;2022-08-11T12:06:20;102294.91;;;29.88;27.84
28921;BME280;16035;53.594;9.952;2022-08-11T12:08:21;102292.94;;;29.88;27.71
28921;BME280;16035;53.594;9.952;2022-08-11T12:10:23;102295.16;;;29.83;27.65
28921;BME280;16035;53.594;9.952;2022-08-11T12:12:24;102286.78;;;29.70;27.28
28921;BME280;16035;53.594;9.952;2022-08-11T12:14:43;102290.78;;;29.69;27.91
28921;BME280;16035;53.594;9.952;2022-08-11T12:16:45;102295.19;;;29.70;28.04
28921;BME280;16035;53.594;9.952;2022-08-11T12:18:49;102287.25;;;29.73;27.70
28921;BME280;16035;53.594;9.952;2022-08-11T12:20:50;102282.72;;;29.68;27.39
28921;BME280;16035;53.594;9.952;2022-08-11T12:22:52;102288.69;;;29.66;27.78
28921;BME280;16035;53.594;9.952;2022-08-11T12:25:12;102295.47;;;29.65;27.61
28921;BME280;16035;53.594;9.952;2022-08-11T12:27:32;102285.41;;;29.64;27.34
28921;BME280;16035;53.594;9.952;2022-08-11T12:29:32;102281.44;;;29.65;27.30
28921;BME280;16035;53.594;9.952;2022-08-11T12:31:35;102280.28;;;29.66;27.45
28921;BME280;16035;53.594;9.952;2022-08-11T12:33:38;102280.72;;;29.68;27.16
28921;BME280;16035;53.594;9.952;2022-08-11T12:35:41;102278.41;;;29.70;27.55
28921;BME280;16035;53.594;9.952;2022-08-11T12:37:45;102276.41;;;29.71;27.29
28921;BME280;16035;53.594;9.952;2022-08-11T12:39:49;102267.63;;;29.73;27.27
28921;BME280;16035;53.594;9.952;2022-08-11T12:42:13;102269.84;;;29.79;27.26
28921;BME280;16035;53.594;9.952;2022-08-11T12:44:35;102263.28;;;29.87;27.46
28921;BME280;16035;53.594;9.952;2022-08-11T12:46:57;102258.94;;;29.90;27.57
28921;BME280;16035;53.594;9.952;2022-08-11T12:49:05;102257.31;;;29.89;27.60
28921;BME280;16035;53.594;9.952;2022-08-11T12:51:31;102251.22;;;29.87;26.94
28921;BME280;16035;53.594;9.952;2022-08-11T12:53:58;102258.97;;;29.78;26.78
28921;BME280;16035;53.594;9.952;2022-08-11T12:56:05;102252.00;;;29.71;27.03
28921;BME280;16035;53.594;9.952;2022-08-11T12:58:25;102247.25;;;29.60;27.17
28921;BME280;16035;53.594;9.952;2022-08-11T13:00:27;102247.97;;;29.57;27.99
28921;BME280;16035;53.594;9.952;2022-08-11T13:02:47;102241.75;;;29.63;28.01
28921;BME280;16035;53.594;9.952;2022-08-11T13:05:09;102245.09;;;29.69;27.87
28921;BME280;16035;53.594;9.952;2022-08-11T13:07:11;102234.94;;;29.77;28.31
28921;BME280;16035;53.594;9.952;2022-08-11T13:09:12;102237.94;;;29.84;27.41
28921;BME280;16035;53.594;9.952;2022-08-11T13:11:13;102231.22;;;29.73;27.19
28921;BME280;16035;53.594;9.952;2022-08-11T13:13:33;102231.56;;;29.71;27.57
28921;BME280;16035;53.594;9.952;2022-08-11T13:15:35;102231.47;;;29.67;27.55
28921;BME280;16035;53.594;9.952;2022-08-11T13:17:36;102222.69;;;29.69;27.30
28921;BME280;16035;53.594;9.952;2022-08-11T13:19:41;102224.69;;;29.68;27.52
28921;BME280;16035;53.594;9.952;2022-08-11T13:21:42;102220.63;;;29.66;27.54
28921;BME280;16035;53.594;9.952;2022-08-11T13:23:43;102220.63;;;29.66;27.65
28921;BME280;16035;53.594;9.952;2022-08-11T13:25:43;102214.66;;;29.67;28.06
28921;BME280;16035;53.594;9.952;2022-08-11T13:27:45;102221.06;;;29.68;27.84
28921;BME280;16035;53.594;9.952;2022-08-11T13:29:48;102215.13;;;29.69;27.92
28921;BME280;16035;53.594;9.952;2022-08-11T13:31:50;102208.47;;;29.74;27.63
28921;BME280;16035;53.594;9.952;2022-08-11T13:33:51;102210.91;;;29.76;27.87
28921;BME280;16035;53.594;9.952;2022-08-11T13:35:53;102205.28;;;29.76;27.93
28921;BME280;16035;53.594;9.952;2022-08-11T13:37:55;102209.38;;;29.78;27.87
28921;BME280;16035;53.594;9.952;2022-08-11T13:39:56;102201.84;;;29.82;28.10
28921;BME280;16035;53.594;9.952;2022-08-11T13:41:59;102200.34;;;29.85;27.87
28921;BME280;16035;53.594;9.952;2022-08-11T13:44:00;102199.97;;;29.86;27.93
28921;BME280;16035;53.594;9.952;2022-08-11T13:46:00;102195.19;;;29.87;28.51
28921;BME280;16035;53.594;9.952;2022-08-11T13:48:19;102202.88;;;29.90;28.09
28921;BME280;16035;53.594;9.952;2022-08-11T13:50:20;102202.63;;;29.95;28.08
28921;BME280;16035;53.594;9.952;2022-08-11T13:52:42;102201.25;;;29.89;27.61
28921;BME280;16035;53.594;9.952;2022-08-11T13:54:46;102196.72;;;29.84;27.87
28921;BME280;16035;53.594;9.952;2022-08-11T13:56:51;102193.94;;;29.84;27.87